createdAt,value
2022-10-03T00:00:39.167Z,99.85
2022-10-03T00:01:39.589Z,99.95
2022-10-03T00:02:39.256Z,99.99
2022-10-03T00:03:39.136Z,99.85
2022-10-03T00:04:39.127Z,99.99
2022-10-03T00:05:39.141Z,99.85
2022-10-03T00:06:39.102Z,99.99
2022-10-03T00:07:39.085Z,99.85
2022-10-03T00:08:39.097Z,99.65
2022-10-03T00:09:39.062Z,99.54
2022-10-03T00:10:39.076Z,99.44
2022-10-03T00:11:39.358Z,99.44
2022-10-03T00:12:39.033Z,99.65
2022-10-03T00:13:39.020Z,99.99
2022-10-03T00:14:39.009Z,99.99
2022-10-03T00:15:39.087Z,99.99
2022-10-03T00:16:39.006Z,99.99
2022-10-03T00:17:38.987Z,99.99
2022-10-03T00:18:38.962Z,99.95
2022-10-03T00:19:38.953Z,99.99
2022-10-03T00:20:38.960Z,99.85
2022-10-03T00:21:39.178Z,99.85
2022-10-03T00:22:38.917Z,99.65
2022-10-03T00:23:38.947Z,99.99
2022-10-03T00:24:38.894Z,99.99
2022-10-03T00:25:38.902Z,99.75
2022-10-03T00:26:38.875Z,99.99
2022-10-03T00:27:38.860Z,99.99
2022-10-03T00:28:38.849Z,99.99
2022-10-03T00:29:38.851Z,99.99
2022-10-03T00:30:38.845Z,99.99
2022-10-03T00:31:39.176Z,99.99
2022-10-03T00:32:38.824Z,99.99
2022-10-03T00:33:38.794Z,99.99
2022-10-03T00:34:38.791Z,99.99
2022-10-03T00:35:38.777Z,99.99
2022-10-03T00:36:38.756Z,99.99
2022-10-03T00:37:38.764Z,99.99
2022-10-03T00:38:38.731Z,99.99
2022-10-03T00:39:38.720Z,99.99
2022-10-03T00:40:38.711Z,99.99
2022-10-03T00:41:38.934Z,99.99
2022-10-03T00:42:38.720Z,99.99
2022-10-03T00:43:38.676Z,99.99
2022-10-03T00:44:38.667Z,99.99
2022-10-03T00:45:38.655Z,99.99
2022-10-03T00:46:39.361Z,99.99
2022-10-03T00:47:38.649Z,99.99
2022-10-03T00:48:38.643Z,99.99
2022-10-03T00:49:38.774Z,99.99
2022-10-03T00:50:38.597Z,99.99
2022-10-03T00:51:38.921Z,99.99
2022-10-03T00:52:38.575Z,99.99
2022-10-03T00:53:38.597Z,99.99
2022-10-03T00:54:38.553Z,99.99
2022-10-03T00:55:38.551Z,99.99
2022-10-03T00:56:38.530Z,99.99
2022-10-03T00:57:38.519Z,99.99
2022-10-03T00:58:38.530Z,99.99
2022-10-03T00:59:38.503Z,99.99
2022-10-03T01:00:38.560Z,99.99
2022-10-03T01:01:38.866Z,99.99
2022-10-03T01:02:38.502Z,99.99
2022-10-03T01:03:38.462Z,99.99
2022-10-03T01:04:38.457Z,99.99
2022-10-03T01:05:38.432Z,99.99
2022-10-03T01:06:38.436Z,99.99
2022-10-03T01:07:38.402Z,99.99
2022-10-03T01:08:38.391Z,99.99
2022-10-03T01:09:38.379Z,99.99
2022-10-03T01:10:38.370Z,99.99
2022-10-03T01:11:38.706Z,99.99
2022-10-03T01:12:38.349Z,99.99
2022-10-03T01:13:38.355Z,99.99
2022-10-03T01:14:38.321Z,99.99
2022-10-03T01:15:38.441Z,99.99
2022-10-03T01:16:38.299Z,99.99
2022-10-03T01:17:38.320Z,99.99
2022-10-03T01:18:38.274Z,99.99
2022-10-03T01:19:38.286Z,99.99
2022-10-03T01:20:38.253Z,99.99
2022-10-03T01:21:38.521Z,99.99
2022-10-03T01:22:38.254Z,99.99
2022-10-03T01:23:38.229Z,99.99
2022-10-03T01:24:38.211Z,99.99
2022-10-03T01:25:38.199Z,99.99
2022-10-03T01:26:38.192Z,99.99
2022-10-03T01:27:38.197Z,99.99
2022-10-03T01:28:38.165Z,99.99
2022-10-03T01:29:38.156Z,99.99
2022-10-03T01:30:38.137Z,99.99
2022-10-03T01:31:38.358Z,99.99
2022-10-03T01:32:38.132Z,99.99
2022-10-03T01:33:38.123Z,99.99
2022-10-03T01:34:38.091Z,99.99
2022-10-03T01:35:38.105Z,99.99
2022-10-03T01:36:38.087Z,99.99
2022-10-03T01:37:38.059Z,99.99
2022-10-03T01:38:38.070Z,99.99
2022-10-03T01:39:38.038Z,99.99
2022-10-03T01:40:38.026Z,99.99
2022-10-03T01:41:38.229Z,99.99
2022-10-03T01:42:38.010Z,99.99
2022-10-03T01:43:38.013Z,99.99
2022-10-03T01:44:37.982Z,99.99
2022-10-03T01:45:37.969Z,99.99
2022-10-03T01:46:38.002Z,99.99
2022-10-03T01:47:37.958Z,99.99
2022-10-03T01:48:37.953Z,99.99
2022-10-03T01:49:37.923Z,99.99
2022-10-03T01:50:37.911Z,99.99
2022-10-03T01:51:38.324Z,99.99
2022-10-03T01:52:37.885Z,99.99
2022-10-03T01:53:37.914Z,99.99
2022-10-03T01:54:37.882Z,99.99
2022-10-03T01:55:37.856Z,99.99
2022-10-03T01:56:37.851Z,99.99
2022-10-03T01:57:37.837Z,99.99
2022-10-03T01:58:37.840Z,99.99
2022-10-03T01:59:37.823Z,99.99
2022-10-03T02:00:37.826Z,99.99
2022-10-03T02:01:38.227Z,99.99
2022-10-03T02:02:37.781Z,99.99
2022-10-03T02:03:37.783Z,99.99
2022-10-03T02:04:37.750Z,99.99
2022-10-03T02:05:37.746Z,99.99
2022-10-03T02:06:37.730Z,99.99
2022-10-03T02:07:37.733Z,99.99
2022-10-03T02:08:37.727Z,99.99
2022-10-03T02:09:37.717Z,99.99
2022-10-03T02:10:37.684Z,99.99
2022-10-03T02:11:38.079Z,99.99
2022-10-03T02:12:37.661Z,99.99
2022-10-03T02:13:37.650Z,99.99
2022-10-03T02:14:37.660Z,99.99
2022-10-03T02:15:37.650Z,99.99
2022-10-03T02:16:37.730Z,99.99
2022-10-03T02:17:37.608Z,99.99
2022-10-03T02:18:37.611Z,99.99
2022-10-03T02:19:37.601Z,99.99
2022-10-03T02:20:37.571Z,99.99
2022-10-03T02:21:37.902Z,99.99
2022-10-03T02:22:37.547Z,99.99
2022-10-03T02:23:37.560Z,99.99
2022-10-03T02:24:37.525Z,99.99
2022-10-03T02:25:37.518Z,99.99
2022-10-03T02:26:37.524Z,99.99
2022-10-03T02:27:38.060Z,99.99
2022-10-03T02:28:37.478Z,99.99
2022-10-03T02:29:37.497Z,99.99
2022-10-03T02:30:37.455Z,99.99
2022-10-03T02:31:40.144Z,99.99
2022-10-03T02:32:37.453Z,99.99
2022-10-03T02:33:37.454Z,99.99
2022-10-03T02:34:37.408Z,99.99
2022-10-03T02:35:37.434Z,99.99
2022-10-03T02:36:37.387Z,99.99
2022-10-03T02:37:37.393Z,99.99
2022-10-03T02:38:46.936Z,99.99
2022-10-03T02:39:37.374Z,99.99
2022-10-03T02:40:37.343Z,99.99
2022-10-03T02:41:37.783Z,99.99
2022-10-03T02:42:37.341Z,99.99
2022-10-03T02:43:37.322Z,99.99
2022-10-03T02:44:37.292Z,99.99
2022-10-03T02:45:37.323Z,99.99
2022-10-03T02:46:37.270Z,99.99
2022-10-03T02:47:37.262Z,99.99
2022-10-03T02:48:37.280Z,99.99
2022-10-03T02:49:37.244Z,99.99
2022-10-03T02:50:37.249Z,99.99
2022-10-03T02:51:37.666Z,99.99
2022-10-03T02:52:37.206Z,99.99
2022-10-03T02:53:37.223Z,99.99
2022-10-03T02:54:37.197Z,99.99
2022-10-03T02:55:37.185Z,99.99
2022-10-03T02:56:37.178Z,99.99
2022-10-03T02:57:37.148Z,99.99
2022-10-03T02:58:37.137Z,99.99
2022-10-03T02:59:37.141Z,99.99
2022-10-03T03:00:37.140Z,99.99
2022-10-03T03:01:37.431Z,99.99
2022-10-03T03:02:37.111Z,99.99
2022-10-03T03:03:37.079Z,99.99
2022-10-03T03:04:37.069Z,99.99
2022-10-03T03:05:37.064Z,99.99
2022-10-03T03:06:37.055Z,99.99
2022-10-03T03:07:37.063Z,99.99
2022-10-03T03:08:37.044Z,99.99
2022-10-03T03:09:37.009Z,99.99
2022-10-03T03:10:37.019Z,99.99
2022-10-03T03:11:37.453Z,99.99
2022-10-03T03:12:41.020Z,99.99
2022-10-03T03:13:36.982Z,99.99
2022-10-03T03:14:36.951Z,99.99
2022-10-03T03:15:36.942Z,99.99
2022-10-03T03:16:37.033Z,99.99
2022-10-03T03:17:36.923Z,99.99
2022-10-03T03:18:36.914Z,99.99
2022-10-03T03:19:36.916Z,99.99
2022-10-03T03:20:36.882Z,99.99
2022-10-03T03:21:37.400Z,99.99
2022-10-03T03:22:36.881Z,99.99
2022-10-03T03:23:36.850Z,99.99
2022-10-03T03:24:36.850Z,99.99
2022-10-03T03:25:36.825Z,99.99
2022-10-03T03:26:36.849Z,99.99
2022-10-03T03:27:36.824Z,99.99
2022-10-03T03:28:36.791Z,99.99
2022-10-03T03:29:36.997Z,99.99
2022-10-03T03:30:36.782Z,99.99
2022-10-03T03:31:36.915Z,99.99
2022-10-03T03:32:36.766Z,99.99
2022-10-03T03:33:36.733Z,99.99
2022-10-03T03:34:36.722Z,99.99
2022-10-03T03:35:36.727Z,99.99
2022-10-03T03:36:36.712Z,99.99
2022-10-03T03:37:36.712Z,99.99
2022-10-03T03:38:36.675Z,99.99
2022-10-03T03:39:36.692Z,99.99
2022-10-03T03:40:36.660Z,99.99
2022-10-03T03:41:37.025Z,99.99
2022-10-03T03:42:36.656Z,99.99
2022-10-03T03:43:36.641Z,99.99
2022-10-03T03:44:36.607Z,99.99
2022-10-03T03:45:36.633Z,99.99
2022-10-03T03:46:36.587Z,99.99
2022-10-03T03:47:36.575Z,99.99
2022-10-03T03:48:36.574Z,99.99
2022-10-03T03:49:36.573Z,99.99
2022-10-03T03:50:36.544Z,99.99
2022-10-03T03:51:36.949Z,99.99
2022-10-03T03:52:36.516Z,99.99
2022-10-03T03:53:36.526Z,99.99
2022-10-03T03:54:36.512Z,99.99
2022-10-03T03:55:36.480Z,99.99
2022-10-03T03:56:36.473Z,99.99
2022-10-03T03:57:36.459Z,99.99
2022-10-03T03:58:36.490Z,99.99
2022-10-03T03:59:36.439Z,99.99
2022-10-03T04:00:36.437Z,99.99
2022-10-03T04:01:36.498Z,99.99
2022-10-03T04:02:36.472Z,99.99
2022-10-03T04:03:36.413Z,99.99
2022-10-03T04:04:36.377Z,99.99
2022-10-03T04:05:36.369Z,99.99
2022-10-03T04:06:36.426Z,99.99
2022-10-03T04:07:36.348Z,99.99
2022-10-03T04:08:36.333Z,99.99
2022-10-03T04:09:36.327Z,99.99
2022-10-03T04:10:36.332Z,99.99
2022-10-03T04:11:36.407Z,99.99
2022-10-03T04:12:37.695Z,99.99
2022-10-03T04:13:36.277Z,99.99
2022-10-03T04:14:36.300Z,99.99
2022-10-03T04:15:36.255Z,99.99
2022-10-03T04:16:36.288Z,99.99
2022-10-03T04:17:36.244Z,99.99
2022-10-03T04:18:36.240Z,99.99
2022-10-03T04:19:36.229Z,99.99
2022-10-03T04:20:36.202Z,99.99
2022-10-03T04:21:36.274Z,99.99
2022-10-03T04:22:36.199Z,99.99
2022-10-03T04:23:36.165Z,99.99
2022-10-03T04:24:36.187Z,99.99
2022-10-03T04:25:36.141Z,99.99
2022-10-03T04:26:36.144Z,99.99
2022-10-03T04:27:36.118Z,99.99
2022-10-03T04:28:36.125Z,99.99
2022-10-03T04:29:36.131Z,99.99
2022-10-03T04:30:36.099Z,99.99
2022-10-03T04:31:36.122Z,99.99
2022-10-03T04:32:36.061Z,99.99
2022-10-03T04:33:36.073Z,99.99
2022-10-03T04:34:36.067Z,99.99
2022-10-03T04:35:36.043Z,99.99
2022-10-03T04:36:36.030Z,99.99
2022-10-03T04:37:36.012Z,99.99
2022-10-03T04:38:36.015Z,99.99
2022-10-03T04:39:36.012Z,99.99
2022-10-03T04:40:36.007Z,99.99
2022-10-03T04:41:38.781Z,99.99
2022-10-03T04:42:36.957Z,99.99
2022-10-03T04:43:35.950Z,99.99
2022-10-03T04:44:35.925Z,99.99
2022-10-03T04:45:36.018Z,99.99
2022-10-03T04:46:36.030Z,99.99
2022-10-03T04:47:35.891Z,99.99
2022-10-03T04:48:35.896Z,99.99
2022-10-03T04:49:35.870Z,99.99
2022-10-03T04:50:35.875Z,99.99
2022-10-03T04:51:36.101Z,99.99
2022-10-03T04:52:35.835Z,99.99
2022-10-03T04:53:35.845Z,99.99
2022-10-03T04:54:35.821Z,99.99
2022-10-03T04:55:35.801Z,99.99
2022-10-03T04:56:35.789Z,99.99
2022-10-03T04:57:35.779Z,99.99
2022-10-03T04:58:35.784Z,99.99
2022-10-03T04:59:35.759Z,99.99
2022-10-03T05:00:35.753Z,99.99
2022-10-03T05:01:35.811Z,99.99
2022-10-03T05:02:35.856Z,99.99
2022-10-03T05:03:35.741Z,99.99
2022-10-03T05:04:35.697Z,99.99
2022-10-03T05:05:35.687Z,99.99
2022-10-03T05:06:35.718Z,99.99
2022-10-03T05:07:35.664Z,99.99
2022-10-03T05:08:35.671Z,99.99
2022-10-03T05:09:35.645Z,99.99
2022-10-03T05:10:35.648Z,99.99
2022-10-03T05:11:35.632Z,99.99
2022-10-03T05:12:35.643Z,99.99
2022-10-03T05:13:35.594Z,99.99
2022-10-03T05:14:35.583Z,99.99
2022-10-03T05:15:35.571Z,99.99
2022-10-03T05:16:35.628Z,99.99
2022-10-03T05:17:35.567Z,99.99
2022-10-03T05:18:35.580Z,99.99
2022-10-03T05:19:35.526Z,99.99
2022-10-03T05:20:35.519Z,99.99
2022-10-03T05:21:35.574Z,99.99
2022-10-03T05:22:35.492Z,99.99
2022-10-03T05:23:35.480Z,99.99
2022-10-03T05:24:35.505Z,99.99
2022-10-03T05:25:35.457Z,99.99
2022-10-03T05:26:50.914Z,99.99
2022-10-03T05:27:36.459Z,99.99
2022-10-03T05:28:35.450Z,99.99
2022-10-03T05:29:35.440Z,99.99
2022-10-03T05:30:35.422Z,99.99
2022-10-03T05:31:35.525Z,99.99
2022-10-03T05:32:35.397Z,99.99
2022-10-03T05:33:35.369Z,99.99
2022-10-03T05:34:35.383Z,99.99
2022-10-03T05:35:35.353Z,99.99
2022-10-03T05:36:35.351Z,99.99
2022-10-03T05:37:35.325Z,99.99
2022-10-03T05:38:35.328Z,99.99
2022-10-03T05:39:35.297Z,99.99
2022-10-03T05:40:35.286Z,99.99
2022-10-03T05:41:35.285Z,99.99
2022-10-03T05:42:35.263Z,99.99
2022-10-03T05:43:35.271Z,99.99
2022-10-03T05:44:35.239Z,99.99
2022-10-03T05:45:35.319Z,99.99
2022-10-03T05:46:35.217Z,99.99
2022-10-03T05:47:35.224Z,99.99
2022-10-03T05:48:35.217Z,99.99
2022-10-03T05:49:35.245Z,99.99
2022-10-03T05:50:35.190Z,99.99
2022-10-03T05:51:35.171Z,99.99
2022-10-03T05:52:35.150Z,99.99
2022-10-03T05:53:37.016Z,99.99
2022-10-03T05:54:35.152Z,99.99
2022-10-03T05:55:35.116Z,99.99
2022-10-03T05:56:40.156Z,99.99
2022-10-03T05:57:36.118Z,99.99
2022-10-03T05:58:35.136Z,99.99
2022-10-03T05:59:35.106Z,99.99
2022-10-03T06:00:35.059Z,99.99
2022-10-03T06:01:35.048Z,99.99
2022-10-03T06:02:35.275Z,99.99
2022-10-03T06:03:35.313Z,99.99
2022-10-03T06:04:35.034Z,99.99
2022-10-03T06:05:35.014Z,99.99
2022-10-03T06:06:35.080Z,99.99
2022-10-03T06:07:34.976Z,99.99
2022-10-03T06:08:34.965Z,99.99
2022-10-03T06:09:34.974Z,99.99
2022-10-03T06:10:34.941Z,99.99
2022-10-03T06:11:34.940Z,99.99
2022-10-03T06:12:34.940Z,99.99
2022-10-03T06:13:34.919Z,99.99
2022-10-03T06:14:34.940Z,99.99
2022-10-03T06:15:34.904Z,99.99
2022-10-03T06:16:34.889Z,99.99
2022-10-03T06:17:36.803Z,99.99
2022-10-03T06:18:34.849Z,99.99
2022-10-03T06:19:34.861Z,99.99
2022-10-03T06:20:34.827Z,99.99
2022-10-03T06:21:34.818Z,99.99
2022-10-03T06:22:34.844Z,99.99
2022-10-03T06:23:34.809Z,99.99
2022-10-03T06:24:34.780Z,99.99
2022-10-03T06:25:34.792Z,99.99
2022-10-03T06:26:34.763Z,99.99
2022-10-03T06:27:34.755Z,99.99
2022-10-03T06:28:34.752Z,99.99
2022-10-03T06:29:34.763Z,99.99
2022-10-03T06:30:34.780Z,99.99
2022-10-03T06:31:34.701Z,99.99
2022-10-03T06:32:34.710Z,99.99
2022-10-03T06:33:34.682Z,99.99
2022-10-03T06:34:34.671Z,99.99
2022-10-03T06:35:34.671Z,99.99
2022-10-03T06:36:34.645Z,99.99
2022-10-03T06:37:34.657Z,99.99
2022-10-03T06:38:34.674Z,99.99
2022-10-03T06:39:34.696Z,99.99
2022-10-03T06:40:34.601Z,99.99
2022-10-03T06:41:34.618Z,99.99
2022-10-03T06:42:34.588Z,99.99
2022-10-03T06:43:34.605Z,99.99
2022-10-03T06:44:34.556Z,99.99
2022-10-03T06:45:34.544Z,99.99
2022-10-03T06:46:34.625Z,99.99
2022-10-03T06:47:34.550Z,99.99
2022-10-03T06:48:34.506Z,99.99
2022-10-03T06:49:34.498Z,99.99
2022-10-03T06:50:34.488Z,99.99
2022-10-03T06:51:34.475Z,99.99
2022-10-03T06:52:34.483Z,99.99
2022-10-03T06:53:34.462Z,99.99
2022-10-03T06:54:34.461Z,99.99
2022-10-03T06:55:34.452Z,99.99
2022-10-03T06:56:34.423Z,99.99
2022-10-03T06:57:34.410Z,99.99
2022-10-03T06:58:34.431Z,99.99
2022-10-03T06:59:34.396Z,99.99
2022-10-03T07:00:34.373Z,99.99
2022-10-03T07:01:42.360Z,99.99
2022-10-03T07:02:34.433Z,99.99
2022-10-03T07:03:34.376Z,99.99
2022-10-03T07:04:34.370Z,99.99
2022-10-03T07:05:37.479Z,99.99
2022-10-03T07:06:35.342Z,99.99
2022-10-03T07:07:34.295Z,99.99
2022-10-03T07:08:34.298Z,99.99
2022-10-03T07:09:34.291Z,99.99
2022-10-03T07:10:34.295Z,99.99
2022-10-03T07:11:34.276Z,99.99
2022-10-03T07:12:34.237Z,99.99
2022-10-03T07:13:34.225Z,99.99
2022-10-03T07:14:34.243Z,99.99
2022-10-03T07:16:02.334Z,99.99
2022-10-03T07:16:35.217Z,99.99
2022-10-03T07:17:34.187Z,99.99
2022-10-03T07:18:34.182Z,99.99
2022-10-03T07:19:34.156Z,99.99
2022-10-03T07:20:34.168Z,99.99
2022-10-03T07:21:34.152Z,99.99
2022-10-03T07:22:34.157Z,99.99
2022-10-03T07:23:34.109Z,99.99
2022-10-03T07:24:34.110Z,99.99
2022-10-03T07:25:34.087Z,99.99
2022-10-03T07:26:34.134Z,99.99
2022-10-03T07:27:34.066Z,99.99
2022-10-03T07:28:34.138Z,99.99
2022-10-03T07:29:34.040Z,99.99
2022-10-03T07:30:34.966Z,99.99
2022-10-03T07:31:34.073Z,99.99
2022-10-03T07:32:34.012Z,99.99
2022-10-03T07:33:38.664Z,99.99
2022-10-03T07:34:37.850Z,99.99
2022-10-03T07:35:33.972Z,99.99
2022-10-03T07:36:33.963Z,99.99
2022-10-03T07:37:33.950Z,99.99
2022-10-03T07:38:33.959Z,99.99
2022-10-03T07:39:33.941Z,99.99
2022-10-03T07:40:33.923Z,99.99
2022-10-03T07:41:33.904Z,99.99
2022-10-03T07:42:33.915Z,99.99
2022-10-03T07:43:33.898Z,99.99
2022-10-03T07:44:33.871Z,99.99
2022-10-03T07:45:33.882Z,99.99
2022-10-03T07:46:33.898Z,99.99
2022-10-03T07:47:33.853Z,99.99
2022-10-03T07:48:33.826Z,99.99
2022-10-03T07:49:33.821Z,99.99
2022-10-03T07:50:33.808Z,99.99
2022-10-03T07:51:33.834Z,99.99
2022-10-03T07:52:33.778Z,99.99
2022-10-03T07:53:33.776Z,99.99
2022-10-03T07:54:33.760Z,99.99
2022-10-03T07:55:33.762Z,99.99
2022-10-03T07:56:33.755Z,99.99
2022-10-03T07:57:33.750Z,99.99
2022-10-03T07:58:33.787Z,99.99
2022-10-03T07:59:33.698Z,99.99
2022-10-03T08:00:36.152Z,99.99
2022-10-03T08:01:34.672Z,99.99
2022-10-03T08:02:33.738Z,99.99
2022-10-03T08:03:33.741Z,99.99
2022-10-03T08:04:33.641Z,99.99
2022-10-03T08:05:33.629Z,99.99
2022-10-03T08:06:33.617Z,99.99
2022-10-03T08:07:33.607Z,99.99
2022-10-03T08:08:33.652Z,99.99
2022-10-03T08:09:33.601Z,99.99
2022-10-03T08:10:37.297Z,99.99
2022-10-03T08:11:34.566Z,99.99
2022-10-03T08:12:33.552Z,99.99
2022-10-03T08:13:33.543Z,99.99
2022-10-03T08:14:33.546Z,99.99
2022-10-03T08:15:33.563Z,99.99
2022-10-03T08:16:33.521Z,99.99
2022-10-03T08:17:33.511Z,99.99
2022-10-03T08:18:33.482Z,99.99
2022-10-03T08:19:33.468Z,99.99
2022-10-03T08:20:33.463Z,99.99
2022-10-03T08:21:33.480Z,99.99
2022-10-03T08:22:33.437Z,99.99
2022-10-03T08:23:33.442Z,99.99
2022-10-03T08:24:33.413Z,99.99
2022-10-03T08:25:33.420Z,99.99
2022-10-03T08:26:33.399Z,99.99
2022-10-03T08:27:33.389Z,99.99
2022-10-03T08:28:33.415Z,99.99
2022-10-03T08:29:33.351Z,99.99
2022-10-03T08:30:33.383Z,99.99
2022-10-03T08:31:33.389Z,99.99
2022-10-03T08:32:33.343Z,99.99
2022-10-03T08:33:33.346Z,99.99
2022-10-03T08:34:33.296Z,99.99
2022-10-03T08:35:33.286Z,99.99
2022-10-03T08:36:33.294Z,99.99
2022-10-03T08:37:33.263Z,99.99
2022-10-03T08:38:40.884Z,99.99
2022-10-03T08:39:33.244Z,99.99
2022-10-03T08:40:33.243Z,99.99
2022-10-03T08:41:33.238Z,99.99
2022-10-03T08:42:33.216Z,99.99
2022-10-03T08:43:33.193Z,99.99
2022-10-03T08:44:33.184Z,99.99
2022-10-03T08:45:33.179Z,99.99
2022-10-03T08:46:33.295Z,99.99
2022-10-03T08:47:33.170Z,99.99
2022-10-03T08:48:33.156Z,99.99
2022-10-03T08:49:33.125Z,99.99
2022-10-03T08:50:33.120Z,99.99
2022-10-03T08:51:33.116Z,99.99
2022-10-03T08:52:33.092Z,99.99
2022-10-03T08:53:33.104Z,99.99
2022-10-03T08:54:33.072Z,99.99
2022-10-03T08:55:33.057Z,99.99
2022-10-03T08:56:33.062Z,99.60
2022-10-03T08:57:33.033Z,99.99
2022-10-03T08:58:33.040Z,99.91
2022-10-03T08:59:33.009Z,99.80
2022-10-03T09:00:33.002Z,99.50
2022-10-03T09:01:33.041Z,99.91
2022-10-03T09:02:33.197Z,99.70
2022-10-03T09:03:36.847Z,99.70
2022-10-03T09:04:33.961Z,99.99
2022-10-03T09:05:32.948Z,98.99
2022-10-03T09:06:32.930Z,99.50
2022-10-03T09:07:33.843Z,99.40
2022-10-03T09:08:32.931Z,99.40
2022-10-03T09:09:36.316Z,99.04
2022-10-03T09:10:32.884Z,98.83
2022-10-03T09:11:32.893Z,98.83
2022-10-03T09:12:32.865Z,98.88
2022-10-03T09:13:32.845Z,98.58
2022-10-03T09:14:32.852Z,98.68
2022-10-03T09:15:32.861Z,98.78
2022-10-03T09:16:32.860Z,98.68
2022-10-03T09:17:32.802Z,99.09
2022-10-03T09:18:32.826Z,99.19
2022-10-03T09:19:32.780Z,99.35
2022-10-03T09:20:32.775Z,99.40
2022-10-03T09:21:37.151Z,98.78
2022-10-03T09:22:32.745Z,99.80
2022-10-03T09:23:32.729Z,99.35
2022-10-03T09:24:32.721Z,99.35
2022-10-03T09:25:32.732Z,99.76
2022-10-03T09:26:32.750Z,98.53
2022-10-03T09:27:32.697Z,98.58
2022-10-03T09:28:32.709Z,98.63
2022-10-03T09:29:32.666Z,98.74
2022-10-03T09:30:32.655Z,98.68
2022-10-03T09:31:32.701Z,98.88
2022-10-03T09:32:32.635Z,99.80
2022-10-03T09:33:32.640Z,99.09
2022-10-03T09:34:32.625Z,99.19
2022-10-03T09:35:32.599Z,99.70
2022-10-03T09:36:32.593Z,99.50
2022-10-03T09:37:32.611Z,99.50
2022-10-03T09:38:32.558Z,99.29
2022-10-03T09:39:32.560Z,99.66
2022-10-03T09:40:32.540Z,99.09
2022-10-03T09:41:32.526Z,99.80
2022-10-03T09:42:32.544Z,98.58
2022-10-03T09:43:32.502Z,99.04
2022-10-03T09:44:32.512Z,99.86
2022-10-03T09:45:32.490Z,98.47
2022-10-03T09:46:32.530Z,98.83
2022-10-03T09:47:32.478Z,99.25
2022-10-03T09:48:32.446Z,98.83
2022-10-03T09:49:32.432Z,98.63
2022-10-03T09:50:32.439Z,98.83
2022-10-03T09:51:32.448Z,98.94
2022-10-03T09:52:32.402Z,98.94
2022-10-03T09:53:32.388Z,98.18
2022-10-03T09:54:32.376Z,98.38
2022-10-03T09:55:34.231Z,98.18
2022-10-03T09:56:32.372Z,98.18
2022-10-03T09:57:32.366Z,97.97
2022-10-03T09:58:32.384Z,97.77
2022-10-03T09:59:32.320Z,97.05
2022-10-03T10:00:32.356Z,97.46
2022-10-03T10:01:32.321Z,97.77
2022-10-03T10:02:32.304Z,97.46
2022-10-03T10:03:32.373Z,97.36
2022-10-03T10:04:53.702Z,97.46
2022-10-03T10:05:33.273Z,97.36
2022-10-03T10:06:32.277Z,97.36
2022-10-03T10:07:32.229Z,96.59
2022-10-03T10:08:32.226Z,97.36
2022-10-03T10:09:32.217Z,97.21
2022-10-03T10:10:32.197Z,97.27
2022-10-03T10:11:35.281Z,97.41
2022-10-03T10:12:32.179Z,96.96
2022-10-03T10:13:49.724Z,97.37
2022-10-03T10:14:33.164Z,97.88
2022-10-03T10:15:32.137Z,97.16
2022-10-03T10:16:32.259Z,96.45
2022-10-03T10:17:32.145Z,96.04
2022-10-03T10:18:32.102Z,95.43
2022-10-03T10:19:32.088Z,95.12
2022-10-03T10:20:32.078Z,95.53
2022-10-03T10:21:32.069Z,95.69
2022-10-03T10:22:32.108Z,94.20
2022-10-03T10:23:32.072Z,95.02
2022-10-03T10:24:32.052Z,95.32
2022-10-03T10:25:32.042Z,95.18
2022-10-03T10:26:32.006Z,95.18
2022-10-03T10:27:31.999Z,94.87
2022-10-03T10:28:32.068Z,95.64
2022-10-03T10:29:31.983Z,95.70
2022-10-03T10:30:31.961Z,96.11
2022-10-03T10:31:32.004Z,95.50
2022-10-03T10:32:31.961Z,94.07
2022-10-03T10:33:31.926Z,94.37
2022-10-03T10:34:31.919Z,93.96
2022-10-03T10:35:31.913Z,93.66
2022-10-03T10:36:31.919Z,93.86
2022-10-03T10:37:31.912Z,94.27
2022-10-03T10:38:31.888Z,93.66
2022-10-03T10:39:31.865Z,93.35
2022-10-03T10:40:31.847Z,93.45
2022-10-03T10:41:31.850Z,93.96
2022-10-03T10:42:31.863Z,94.07
2022-10-03T10:43:31.834Z,94.07
2022-10-03T10:44:32.445Z,93.66
2022-10-03T10:45:31.794Z,93.76
2022-10-03T10:46:31.828Z,93.19
2022-10-03T10:47:31.802Z,93.50
2022-10-03T10:48:31.765Z,94.32
2022-10-03T10:49:31.758Z,93.60
2022-10-03T10:50:31.733Z,93.91
2022-10-03T10:51:31.747Z,93.60
2022-10-03T10:52:31.714Z,93.70
2022-10-03T10:53:31.712Z,93.96
2022-10-03T10:54:31.768Z,93.80
2022-10-03T10:55:31.685Z,93.60
2022-10-03T10:56:32.328Z,93.80
2022-10-03T10:57:31.664Z,93.60
2022-10-03T10:58:31.663Z,94.32
2022-10-03T10:59:31.642Z,93.60
2022-10-03T11:00:31.716Z,94.07
2022-10-03T11:01:31.607Z,94.17
2022-10-03T11:02:31.604Z,94.01
2022-10-03T11:03:31.588Z,94.37
2022-10-03T11:04:31.653Z,94.17
2022-10-03T11:05:31.568Z,94.37
2022-10-03T11:06:31.564Z,93.82
2022-10-03T11:07:31.547Z,94.23
2022-10-03T11:08:31.533Z,94.79
2022-10-03T11:09:31.544Z,94.18
2022-10-03T11:10:31.521Z,94.14
2022-10-03T11:11:31.498Z,93.84
2022-10-03T11:12:31.490Z,93.12
2022-10-03T11:13:35.568Z,92.91
2022-10-03T11:14:31.492Z,93.02
2022-10-03T11:15:31.461Z,92.00
2022-10-03T11:16:31.498Z,92.97
2022-10-03T11:17:31.429Z,92.36
2022-10-03T11:18:31.415Z,91.96
2022-10-03T11:19:31.425Z,91.55
2022-10-03T11:20:31.398Z,91.96
2022-10-03T11:21:31.391Z,91.03
2022-10-03T11:22:31.387Z,91.44
2022-10-03T11:23:31.373Z,91.55
2022-10-03T11:24:31.348Z,90.12
2022-10-03T11:25:31.336Z,90.22
2022-10-03T11:26:31.339Z,90.63
2022-10-03T11:27:31.344Z,90.63
2022-10-03T11:28:31.324Z,90.57
2022-10-03T11:29:31.287Z,90.77
2022-10-03T11:30:31.279Z,90.98
2022-10-03T11:31:31.298Z,91.89
2022-10-03T11:32:31.272Z,92.46
2022-10-03T11:33:31.254Z,92.36
2022-10-03T11:34:31.234Z,92.16
2022-10-03T11:35:31.244Z,93.03
2022-10-03T11:36:31.228Z,92.68
2022-10-03T11:37:31.203Z,91.40
2022-10-03T11:38:31.208Z,90.42
2022-10-03T11:39:31.183Z,90.38
2022-10-03T11:40:31.169Z,90.08
2022-10-03T11:41:31.831Z,89.92
2022-10-03T11:42:31.161Z,91.35
2022-10-03T11:43:31.182Z,91.35
2022-10-03T11:44:31.125Z,90.94
2022-10-03T11:45:31.177Z,90.01
2022-10-03T11:46:31.096Z,90.73
2022-10-03T11:47:31.092Z,91.18
2022-10-03T11:48:31.076Z,89.96
2022-10-03T11:49:31.083Z,90.94
2022-10-03T11:50:31.070Z,90.47
2022-10-03T11:51:31.051Z,90.67
2022-10-03T11:52:31.032Z,91.28
2022-10-03T11:53:31.035Z,90.71
2022-10-03T11:54:32.401Z,91.53
2022-10-03T11:55:31.023Z,90.61
2022-10-03T11:56:30.989Z,91.63
2022-10-03T11:57:31.004Z,91.98
2022-10-03T11:58:30.979Z,91.57
2022-10-03T11:59:30.956Z,91.98
2022-10-03T12:00:30.958Z,91.88
2022-10-03T12:01:30.930Z,92.19
2022-10-03T12:02:30.958Z,91.88
2022-10-03T12:03:30.961Z,92.04
2022-10-03T12:04:30.917Z,92.86
2022-10-03T12:05:30.895Z,92.45
2022-10-03T12:06:30.871Z,91.47
2022-10-03T12:07:30.865Z,92.08
2022-10-03T12:08:30.871Z,90.86
2022-10-03T12:09:30.869Z,90.55
2022-10-03T12:10:30.831Z,90.35
2022-10-03T12:11:30.819Z,89.73
2022-10-03T12:12:30.824Z,90.19
2022-10-03T12:13:30.835Z,90.35
2022-10-03T12:14:30.799Z,90.75
2022-10-03T12:15:30.805Z,90.59
2022-10-03T12:16:30.890Z,90.80
2022-10-03T12:17:30.765Z,90.19
2022-10-03T12:18:30.758Z,90.19
2022-10-03T12:19:30.727Z,91.61
2022-10-03T12:20:30.735Z,92.37
2022-10-03T12:21:32.030Z,92.33
2022-10-03T12:22:30.697Z,92.88
2022-10-03T12:23:30.692Z,92.33
2022-10-03T12:24:30.669Z,92.78
2022-10-03T12:25:30.683Z,92.74
2022-10-03T12:26:30.649Z,92.33
2022-10-03T12:27:30.657Z,91.92
2022-10-03T12:28:30.676Z,92.74
2022-10-03T12:29:30.617Z,93.05
2022-10-03T12:30:30.646Z,93.10
2022-10-03T12:31:30.630Z,92.69
2022-10-03T12:32:30.578Z,93.51
2022-10-03T12:33:30.566Z,92.29
2022-10-03T12:34:30.570Z,92.19
2022-10-03T12:35:30.542Z,92.08
2022-10-03T12:36:30.537Z,93.00
2022-10-03T12:37:30.529Z,93.10
2022-10-03T12:38:30.509Z,92.80
2022-10-03T12:39:30.517Z,93.00
2022-10-03T12:40:30.516Z,93.06
2022-10-03T12:41:30.485Z,92.49
2022-10-03T12:42:30.471Z,91.67
2022-10-03T12:43:30.451Z,91.27
2022-10-03T12:44:30.465Z,90.86
2022-10-03T12:45:30.457Z,92.39
2022-10-03T12:46:30.436Z,91.47
2022-10-03T12:47:50.975Z,91.57
2022-10-03T12:48:31.393Z,91.47
2022-10-03T12:49:30.405Z,91.06
2022-10-03T12:50:30.387Z,89.69
2022-10-03T12:51:30.358Z,90.31
2022-10-03T12:52:30.365Z,91.02